createdAt,value
2022-09-28T00:00:18.336Z,10.20
2022-09-28T00:02:48.455Z,10.20
2022-09-28T00:05:16.642Z,10.20
2022-09-28T00:07:44.679Z,10.30
2022-09-28T00:10:12.924Z,10.30
2022-09-28T00:12:41.399Z,10.30
2022-09-28T00:15:10.343Z,10.30
2022-09-28T00:17:38.360Z,10.30
2022-09-28T00:20:08.496Z,10.40
2022-09-28T00:22:36.538Z,10.30
2022-09-28T00:25:04.878Z,10.40
2022-09-28T00:27:32.928Z,10.30
2022-09-28T00:30:01.141Z,10.30
2022-09-28T00:32:30.006Z,10.30
2022-09-28T00:34:58.022Z,10.30
2022-09-28T00:37:27.510Z,10.30
2022-09-28T00:39:55.542Z,10.30
2022-09-28T00:42:24.497Z,10.40
2022-09-28T00:44:52.753Z,10.40
2022-09-28T00:47:44.327Z,10.40
2022-09-28T00:50:15.961Z,10.40
2022-09-28T00:52:48.650Z,10.40
2022-09-28T00:55:18.175Z,10.40
2022-09-28T00:57:48.759Z,10.40
2022-09-28T01:00:16.995Z,10.40
2022-09-28T01:02:45.327Z,10.50
2022-09-28T01:05:13.527Z,10.50
2022-09-28T01:07:41.797Z,10.40
2022-09-28T01:10:11.386Z,10.50
2022-09-28T01:12:39.601Z,10.50
2022-09-28T01:15:09.659Z,10.50
2022-09-28T01:17:45.906Z,10.50
2022-09-28T01:20:39.856Z,10.30
2022-09-28T01:23:35.342Z,10.40
2022-09-28T01:26:31.452Z,10.40
2022-09-28T01:29:01.957Z,10.40
2022-09-28T01:31:32.313Z,10.40
2022-09-28T01:34:01.642Z,10.40
2022-09-28T01:36:31.186Z,10.30
2022-09-28T01:39:01.084Z,10.40
2022-09-28T01:41:30.639Z,10.40
2022-09-28T01:43:59.566Z,10.40
2022-09-28T01:46:30.035Z,10.40
2022-09-28T01:48:59.041Z,10.40
2022-09-28T01:51:30.621Z,10.40
2022-09-28T01:54:00.078Z,10.40
2022-09-28T01:56:35.663Z,10.40
2022-09-28T01:59:06.538Z,10.40
2022-09-28T02:01:37.210Z,10.40
2022-09-28T02:04:08.403Z,10.40
2022-09-28T02:06:38.905Z,10.40
2022-09-28T02:09:10.231Z,10.40
2022-09-28T02:11:46.313Z,10.40
2022-09-28T02:14:14.875Z,10.40
2022-09-28T02:16:45.022Z,10.40
2022-09-28T02:19:14.023Z,10.40
2022-09-28T02:21:44.141Z,10.30
2022-09-28T02:24:21.235Z,10.30
2022-09-28T02:26:51.755Z,10.40
2022-09-28T02:29:19.798Z,10.30
2022-09-28T02:31:47.876Z,10.30
2022-09-28T02:34:16.022Z,10.30
2022-09-28T02:36:45.044Z,10.30
2022-09-28T02:39:15.183Z,10.30
2022-09-28T02:41:49.700Z,10.30
2022-09-28T02:44:41.460Z,10.30
2022-09-28T02:47:14.013Z,10.30
2022-09-28T02:49:45.711Z,10.40
2022-09-28T02:52:25.500Z,10.40
2022-09-28T02:55:02.800Z,10.40
2022-09-28T02:57:35.832Z,10.30
2022-09-28T03:00:08.524Z,10.30
2022-09-28T03:02:39.059Z,10.20
2022-09-28T03:05:18.303Z,10.20
2022-09-28T03:07:48.944Z,10.20
2022-09-28T03:10:20.687Z,10.30
2022-09-28T03:12:48.858Z,10.30
2022-09-28T03:15:23.176Z,10.30
2022-09-28T03:17:51.468Z,10.30
2022-09-28T03:20:20.086Z,10.20
2022-09-28T03:23:05.942Z,10.30
2022-09-28T03:25:36.367Z,10.20
2022-09-28T03:28:04.436Z,10.30
2022-09-28T03:30:37.693Z,10.30
2022-09-28T03:33:07.043Z,10.20
2022-09-28T03:35:35.161Z,10.20
2022-09-28T03:38:03.189Z,10.30
2022-09-28T03:40:33.482Z,10.20
2022-09-28T03:43:01.557Z,10.20
2022-09-28T03:45:29.909Z,10.30
2022-09-28T03:48:00.206Z,10.30
2022-09-28T03:50:28.329Z,10.30
2022-09-28T03:52:56.347Z,10.30
2022-09-28T03:55:24.470Z,10.30
2022-09-28T03:57:55.961Z,10.30
2022-09-28T04:00:24.253Z,10.30
2022-09-28T04:02:52.423Z,10.30
2022-09-28T04:05:21.838Z,10.30
2022-09-28T04:07:49.870Z,10.30
2022-09-28T04:10:17.990Z,10.30
2022-09-28T04:12:46.042Z,10.30
2022-09-28T04:15:15.729Z,10.20
2022-09-28T04:17:44.567Z,10.30
2022-09-28T04:20:26.955Z,10.40
2022-09-28T04:23:04.131Z,10.40
2022-09-28T04:25:32.463Z,10.30
2022-09-28T04:28:18.155Z,10.40
2022-09-28T04:30:47.901Z,10.40
2022-09-28T04:33:16.019Z,10.30
2022-09-28T04:35:45.401Z,10.30
2022-09-28T04:38:13.451Z,10.30
2022-09-28T04:40:42.211Z,10.30
2022-09-28T04:43:10.418Z,10.30
2022-09-28T04:45:38.537Z,10.30
2022-09-28T04:48:10.222Z,10.30
2022-09-28T04:50:58.537Z,10.30
2022-09-28T04:53:27.999Z,10.40
2022-09-28T04:55:57.716Z,10.40
2022-09-28T04:58:25.848Z,10.30
2022-09-28T05:00:54.704Z,10.40
2022-09-28T05:03:42.907Z,10.40
2022-09-28T05:06:30.722Z,10.40
2022-09-28T05:09:06.127Z,10.40
2022-09-28T05:11:34.446Z,10.50
2022-09-28T05:14:03.069Z,10.40
2022-09-28T05:16:33.799Z,10.50
2022-09-28T05:19:20.641Z,10.50
2022-09-28T05:21:50.678Z,10.50
2022-09-28T05:24:18.754Z,10.50
2022-09-28T05:26:52.437Z,10.50
2022-09-28T05:29:20.981Z,10.50
2022-09-28T05:32:07.495Z,10.60
2022-09-28T05:35:01.176Z,10.60
2022-09-28T05:37:41.122Z,10.60
2022-09-28T05:40:09.955Z,10.60
2022-09-28T05:42:39.340Z,10.60
2022-09-28T05:45:08.405Z,10.60
2022-09-28T05:47:38.794Z,10.60
2022-09-28T05:50:08.738Z,10.60
2022-09-28T05:52:36.759Z,10.70
2022-09-28T05:55:07.495Z,10.70
2022-09-28T05:57:36.021Z,10.70
2022-09-28T06:00:05.174Z,10.70
2022-09-28T06:02:40.606Z,10.70
2022-09-28T06:05:12.367Z,10.70
2022-09-28T06:07:40.519Z,10.70
2022-09-28T06:10:10.567Z,10.70
2022-09-28T06:12:42.364Z,10.80
2022-09-28T06:15:16.071Z,10.80
2022-09-28T06:17:45.068Z,10.80
2022-09-28T06:20:51.334Z,10.80
2022-09-28T06:23:28.010Z,10.90
2022-09-28T06:25:59.720Z,10.90
2022-09-28T06:28:28.078Z,10.90
2022-09-28T06:30:57.163Z,11.00
2022-09-28T06:33:25.718Z,11.00
2022-09-28T06:35:53.803Z,11.00
2022-09-28T06:38:22.023Z,11.10
2022-09-28T06:40:50.843Z,11.10
2022-09-28T06:43:21.068Z,11.20
2022-09-28T06:46:08.311Z,11.30
2022-09-28T06:49:03.468Z,11.40
2022-09-28T06:51:50.142Z,11.40
2022-09-28T06:54:36.199Z,11.50
2022-09-28T06:57:20.912Z,11.60
2022-09-28T06:59:50.343Z,11.80
2022-09-28T07:02:18.497Z,11.90
2022-09-28T07:05:03.120Z,11.90
2022-09-28T07:07:42.963Z,12.10
2022-09-28T07:10:24.139Z,12.20
2022-09-28T07:16:19.705Z,12.50
2022-09-28T07:18:50.870Z,12.50
2022-09-28T07:21:29.827Z,12.20
2022-09-28T07:24:01.821Z,12.30
2022-09-28T07:26:52.855Z,12.10
2022-09-28T07:29:41.410Z,12.20
2022-09-28T07:32:24.767Z,12.20
2022-09-28T07:34:59.624Z,12.50
2022-09-28T07:37:45.866Z,12.30
2022-09-28T07:40:31.390Z,12.40
2022-09-28T07:43:05.223Z,12.30
2022-09-28T07:45:36.697Z,12.40
2022-09-28T07:48:06.560Z,12.50
2022-09-28T07:50:49.238Z,12.50
2022-09-28T07:53:28.559Z,12.60
2022-09-28T07:56:11.994Z,12.50
2022-09-28T07:58:54.983Z,12.40
2022-09-28T08:01:25.550Z,12.40
2022-09-28T08:03:56.418Z,12.60
2022-09-28T08:06:24.818Z,12.80
2022-09-28T08:08:56.339Z,12.90
2022-09-28T08:11:30.520Z,13.10
2022-09-28T08:14:06.987Z,13.20
2022-09-28T08:16:59.922Z,13.30
2022-09-28T08:20:05.548Z,13.40
2022-09-28T08:22:33.580Z,13.40
2022-09-28T08:25:02.358Z,13.70
2022-09-28T08:27:30.753Z,13.60
2022-09-28T08:29:58.800Z,13.80
2022-09-28T08:32:42.632Z,13.70
2022-09-28T08:35:41.314Z,13.70
2022-09-28T08:38:18.971Z,13.70
2022-09-28T08:41:11.019Z,13.70
2022-09-28T08:44:01.990Z,13.70
2022-09-28T08:46:37.935Z,13.70
2022-09-28T08:49:26.721Z,13.50
2022-09-28T08:52:04.074Z,13.60
2022-09-28T08:54:53.150Z,13.80
2022-09-28T08:57:30.366Z,14.90
2022-09-28T08:59:59.860Z,15.30
2022-09-28T09:02:33.493Z,15.90
2022-09-28T09:05:19.201Z,15.90
2022-09-28T09:08:15.046Z,16.00
2022-09-28T09:10:48.823Z,16.50
2022-09-28T09:13:59.876Z,16.40
2022-09-28T09:16:33.454Z,16.10
2022-09-28T09:19:28.449Z,16.10
2022-09-28T09:22:16.484Z,15.90
2022-09-28T09:24:50.084Z,16.00
2022-09-28T09:27:29.609Z,16.20
2022-09-28T09:30:04.012Z,16.30
2022-09-28T09:32:43.350Z,16.50
2022-09-28T09:35:30.978Z,16.40
2022-09-28T09:38:28.559Z,16.50
2022-09-28T09:41:23.055Z,16.70
2022-09-28T09:44:21.148Z,16.80
2022-09-28T09:46:54.161Z,16.90
2022-09-28T09:49:38.262Z,17.00
2022-09-28T09:52:09.027Z,17.00
2022-09-28T09:54:38.510Z,17.20
2022-09-28T09:57:12.616Z,17.10
2022-09-28T09:59:52.465Z,17.50
2022-09-28T10:02:27.132Z,17.20
2022-09-28T10:05:08.970Z,17.20
2022-09-28T10:07:43.441Z,17.30
2022-09-28T10:10:13.790Z,17.10
2022-09-28T10:12:50.264Z,17.20
2022-09-28T10:15:23.158Z,17.00
2022-09-28T10:18:06.767Z,16.60
2022-09-28T10:20:53.722Z,16.70
2022-09-28T10:23:34.009Z,16.90
2022-09-28T10:26:04.250Z,16.90
2022-09-28T10:28:36.755Z,16.90
2022-09-28T10:31:37.509Z,17.30
2022-09-28T10:34:09.863Z,17.60
2022-09-28T10:36:48.139Z,17.60
2022-09-28T10:39:30.248Z,17.60
2022-09-28T10:41:59.864Z,17.50
2022-09-28T10:44:31.639Z,17.40
2022-09-28T10:47:17.024Z,17.50
2022-09-28T10:49:47.364Z,17.30
2022-09-28T10:52:32.040Z,17.20
2022-09-28T10:55:00.377Z,17.10
2022-09-28T10:57:29.391Z,17.00
2022-09-28T11:00:08.159Z,17.10
2022-09-28T11:02:41.316Z,17.00
2022-09-28T11:05:22.324Z,16.90
2022-09-28T11:07:52.451Z,16.90
2022-09-28T11:10:26.372Z,16.90
2022-09-28T11:12:58.352Z,16.70
2022-09-28T11:15:30.396Z,16.70
2022-09-28T11:18:18.642Z,16.80
2022-09-28T11:20:46.723Z,16.80
2022-09-28T11:23:22.524Z,16.80
2022-09-28T11:25:59.420Z,16.60
2022-09-28T11:28:31.539Z,16.60
2022-09-28T11:31:01.947Z,16.60
2022-09-28T11:33:37.791Z,16.60
2022-09-28T11:36:28.783Z,16.70
2022-09-28T11:39:00.526Z,16.70
2022-09-28T11:41:54.262Z,15.70
2022-09-28T11:44:46.996Z,16.00
2022-09-28T11:47:39.135Z,16.30
2022-09-28T11:50:09.545Z,16.40
2022-09-28T11:52:40.780Z,16.40
2022-09-28T11:55:13.002Z,16.40
2022-09-28T11:57:43.631Z,16.40
2022-09-28T12:00:14.993Z,16.10
2022-09-28T12:02:50.696Z,16.20
2022-09-28T12:05:23.992Z,16.10
2022-09-28T12:07:55.294Z,16.20
2022-09-28T12:10:45.521Z,16.20
2022-09-28T12:13:17.491Z,16.10
2022-09-28T12:16:17.197Z,15.90
2022-09-28T12:18:40.043Z,15.60
2022-09-28T12:21:19.448Z,15.40
2022-09-28T12:23:47.647Z,15.30
2022-09-28T12:26:25.243Z,15.00
2022-09-28T12:28:56.761Z,15.00
2022-09-28T12:31:26.790Z,14.80
2022-09-28T12:33:56.185Z,14.80
2022-09-28T12:36:31.637Z,14.60
2022-09-28T12:39:24.255Z,14.60
2022-09-28T12:42:07.797Z,14.20
2022-09-28T12:44:44.274Z,13.70
2022-09-28T12:47:38.121Z,13.10
2022-09-28T12:53:20.208Z,13.10
2022-09-28T12:55:56.416Z,13.30
2022-09-28T12:58:48.305Z,12.70
2022-09-28T13:01:43.543Z,12.70
2022-09-28T13:04:35.990Z,12.60
2022-09-28T13:07:06.538Z,12.60
2022-09-28T13:09:38.848Z,12.60
2022-09-28T13:12:16.631Z,12.40
2022-09-28T13:15:08.614Z,12.40
2022-09-28T13:17:48.382Z,12.40
2022-09-28T13:20:25.165Z,12.30
2022-09-28T13:22:57.964Z,12.30
2022-09-28T13:25:27.835Z,12.30
2022-09-28T13:27:58.062Z,12.50
2022-09-28T13:30:26.700Z,12.60
2022-09-28T13:32:55.346Z,12.70
2022-09-28T13:35:23.364Z,12.70
2022-09-28T13:38:52.349Z,12.90
2022-09-28T13:41:24.848Z,12.90
2022-09-28T13:44:24.807Z,13.00
2022-09-28T13:47:03.397Z,13.00
2022-09-28T13:49:33.865Z,13.00
2022-09-28T13:52:05.735Z,13.10
2022-09-28T13:54:45.707Z,13.10
2022-09-28T13:57:19.761Z,13.10
2022-09-28T14:00:01.125Z,13.10
2022-09-28T14:02:33.232Z,13.00
2022-09-28T14:05:02.125Z,13.00
2022-09-28T14:07:58.497Z,13.10
2022-09-28T14:10:49.453Z,13.10
2022-09-28T14:13:50.970Z,12.80
2022-09-28T14:16:23.542Z,12.80
2022-09-28T14:18:52.224Z,12.70
2022-09-28T14:21:55.617Z,12.70
2022-09-28T14:24:31.368Z,12.70
2022-09-28T14:27:14.695Z,12.80
2022-09-28T14:29:42.715Z,12.80
2022-09-28T14:32:24.963Z,12.70
2022-09-28T14:35:00.709Z,12.80
2022-09-28T14:37:47.269Z,12.70
2022-09-28T14:40:44.778Z,12.70
2022-09-28T14:43:24.589Z,12.70
2022-09-28T14:45:54.686Z,12.60
2022-09-28T14:48:43.257Z,12.60
2022-09-28T14:51:45.935Z,12.60
2022-09-28T14:54:19.136Z,12.70
2022-09-28T14:56:57.570Z,12.20
2022-09-28T14:59:26.451Z,12.30
2022-09-28T15:01:57.365Z,12.40
2022-09-28T15:04:28.117Z,12.40
2022-09-28T15:06:56.247Z,12.40
2022-09-28T15:09:30.495Z,12.50
2022-09-28T15:12:01.939Z,12.50
2022-09-28T15:14:31.967Z,12.50
2022-09-28T15:17:03.489Z,12.40
2022-09-28T15:19:33.833Z,12.50
2022-09-28T15:22:01.859Z,12.50
2022-09-28T15:24:32.602Z,12.50
2022-09-28T15:27:00.806Z,12.40
2022-09-28T15:29:31.492Z,12.40
2022-09-28T15:31:59.571Z,12.50
2022-09-28T15:34:46.411Z,12.50
2022-09-28T15:37:16.274Z,12.50
2022-09-28T15:39:48.396Z,12.50
2022-09-28T15:42:17.671Z,12.60
2022-09-28T15:45:01.308Z,12.60
2022-09-28T15:47:29.995Z,12.60
2022-09-28T15:49:58.765Z,12.60
2022-09-28T15:52:31.481Z,12.40
2022-09-28T15:55:01.006Z,12.30
2022-09-28T15:57:32.868Z,12.40
2022-09-28T16:00:01.180Z,12.40
2022-09-28T16:02:29.265Z,12.40
2022-09-28T16:04:59.011Z,12.30
2022-09-28T16:07:31.487Z,12.30
2022-09-28T16:10:01.729Z,12.30
2022-09-28T16:12:34.832Z,12.30
2022-09-28T16:15:05.420Z,12.20
2022-09-28T16:17:35.009Z,12.20
2022-09-28T16:20:04.798Z,12.10
2022-09-28T16:22:34.157Z,12.10
2022-09-28T16:25:02.286Z,12.00
2022-09-28T16:27:31.157Z,12.00
2022-09-28T16:30:15.703Z,12.00
2022-09-28T16:32:57.610Z,11.90
2022-09-28T16:35:30.699Z,11.90
2022-09-28T16:38:12.533Z,11.90
2022-09-28T16:40:41.991Z,11.90
2022-09-28T16:43:19.384Z,11.90
2022-09-28T16:45:47.505Z,11.80
2022-09-28T16:48:19.299Z,11.80
2022-09-28T16:50:48.188Z,11.80
2022-09-28T16:53:35.418Z,11.70
2022-09-28T16:56:05.380Z,11.70
2022-09-28T16:58:33.761Z,11.60
2022-09-28T17:01:02.050Z,11.60
2022-09-28T17:03:30.315Z,11.50
2022-09-28T17:05:58.416Z,11.50
2022-09-28T17:08:27.963Z,11.50
2022-09-28T17:13:45.262Z,11.50
2022-09-28T17:16:14.588Z,11.50
2022-09-28T17:18:42.767Z,11.40
2022-09-28T17:21:12.718Z,11.50
2022-09-28T17:23:42.112Z,11.40
2022-09-28T17:26:12.632Z,11.40
2022-09-28T17:28:40.654Z,11.30
2022-09-28T17:31:10.911Z,11.40
2022-09-28T17:33:39.011Z,11.30
2022-09-28T17:36:07.606Z,11.30
2022-09-28T17:38:36.585Z,11.20
2022-09-28T17:41:06.301Z,11.20
2022-09-28T17:43:34.363Z,11.20
2022-09-28T17:46:03.644Z,11.20
2022-09-28T17:48:33.435Z,11.10
2022-09-28T17:51:02.066Z,11.10
2022-09-28T17:53:30.082Z,11.00
2022-09-28T17:58:38.880Z,10.90
2022-09-28T18:01:07.145Z,10.90
2022-09-28T18:03:35.255Z,10.80
2022-09-28T18:06:04.407Z,10.80
2022-09-28T18:08:35.462Z,10.80
2022-09-28T18:11:03.742Z,10.70
2022-09-28T18:13:32.046Z,10.70
2022-09-28T18:16:01.867Z,10.70
2022-09-28T18:18:31.024Z,10.60
2022-09-28T18:20:59.303Z,10.60
2022-09-28T18:23:27.623Z,10.60
2022-09-28T18:25:55.901Z,10.50
2022-09-28T18:28:24.209Z,10.50
2022-09-28T18:30:52.889Z,10.50
2022-09-28T18:33:22.502Z,10.50
2022-09-28T18:35:53.924Z,10.40
2022-09-28T18:38:22.206Z,10.30
2022-09-28T18:40:50.401Z,10.30
2022-09-28T18:43:18.627Z,10.30
2022-09-28T18:45:47.185Z,10.30
2022-09-28T18:48:15.363Z,10.20
2022-09-28T18:50:44.880Z,10.20
2022-09-28T18:53:13.090Z,10.20
2022-09-28T18:55:41.336Z,10.20
2022-09-28T18:58:09.640Z,10.10
2022-09-28T19:00:39.012Z,10.10
2022-09-28T19:03:07.394Z,10.10
2022-09-28T19:05:35.532Z,10.00
2022-09-28T19:08:05.096Z,10.00
2022-09-28T19:10:33.094Z,9.90
2022-09-28T19:13:01.119Z,9.90
2022-09-28T19:15:29.176Z,9.80
2022-09-28T19:17:57.296Z,9.80
2022-09-28T19:20:25.286Z,9.70
2022-09-28T19:22:53.527Z,9.70
2022-09-28T19:25:23.155Z,9.70
2022-09-28T19:27:51.183Z,9.70
2022-09-28T19:30:19.312Z,9.60
2022-09-28T19:32:47.350Z,9.50
2022-09-28T19:35:15.444Z,9.60
2022-09-28T19:37:46.700Z,9.50
2022-09-28T19:40:14.789Z,9.50
2022-09-28T19:42:44.162Z,9.50
2022-09-28T19:45:12.198Z,9.50
2022-09-28T19:47:40.240Z,9.50
2022-09-28T19:50:10.303Z,9.50
2022-09-28T19:52:38.333Z,9.50
2022-09-28T19:55:07.174Z,9.50
2022-09-28T19:57:35.230Z,9.50
2022-09-28T20:00:04.944Z,9.50
2022-09-28T20:02:34.142Z,9.50
2022-09-28T20:05:02.248Z,9.50
2022-09-28T20:07:33.064Z,9.50
2022-09-28T20:10:01.240Z,9.50
2022-09-28T20:12:29.274Z,9.50
2022-09-28T20:14:57.844Z,9.50
2022-09-28T20:17:27.708Z,9.50
2022-09-28T20:19:55.726Z,9.50
2022-09-28T20:22:23.758Z,9.50
2022-09-28T20:24:51.750Z,9.50
2022-09-28T20:27:22.093Z,9.60
2022-09-28T20:29:53.706Z,9.60
2022-09-28T20:32:21.729Z,9.60
2022-09-28T20:34:51.071Z,9.60
2022-09-28T20:37:19.431Z,9.60
2022-09-28T20:39:47.402Z,9.60
2022-09-28T20:42:15.828Z,9.60
2022-09-28T20:44:44.022Z,9.60
2022-09-28T20:47:12.056Z,9.60
2022-09-28T20:49:40.067Z,9.60
2022-09-28T20:52:09.520Z,9.60
2022-09-28T20:54:38.108Z,9.50
2022-09-28T20:57:17.351Z,9.50
2022-09-28T20:59:45.484Z,9.60
2022-09-28T21:02:14.089Z,9.50
2022-09-28T21:04:42.251Z,9.50
2022-09-28T21:07:11.671Z,9.50
2022-09-28T21:09:39.675Z,9.50
2022-09-28T21:12:09.273Z,9.40
2022-09-28T21:14:37.281Z,9.40
2022-09-28T21:17:05.370Z,9.40
2022-09-28T21:19:33.376Z,9.30
2022-09-28T21:22:01.761Z,9.30
2022-09-28T21:24:31.106Z,9.30
2022-09-28T21:26:59.557Z,9.30
2022-09-28T21:29:27.647Z,9.30
2022-09-28T21:31:55.671Z,9.30
2022-09-28T21:34:25.239Z,9.30
2022-09-28T21:36:53.258Z,9.30
2022-09-28T21:39:21.419Z,9.30
2022-09-28T21:41:50.808Z,9.30
2022-09-28T21:44:18.918Z,9.20
2022-09-28T21:46:47.071Z,9.20
2022-09-28T21:49:15.096Z,9.20
2022-09-28T21:51:43.117Z,9.20
2022-09-28T21:54:12.060Z,9.20
2022-09-28T21:56:40.204Z,9.10
2022-09-28T21:59:09.571Z,9.20
2022-09-28T22:01:37.672Z,9.10
2022-09-28T22:04:05.937Z,9.10
2022-09-28T22:06:34.170Z,9.10
2022-09-28T22:09:02.166Z,9.10
2022-09-28T22:11:30.327Z,9.10
2022-09-28T22:13:59.465Z,9.00
2022-09-28T22:16:30.088Z,9.00
2022-09-28T22:18:58.219Z,9.00
2022-09-28T22:21:27.267Z,8.90
2022-09-28T22:23:55.296Z,8.90
2022-09-28T22:26:24.772Z,8.90
2022-09-28T22:28:53.563Z,8.80
2022-09-28T22:31:22.879Z,8.80
2022-09-28T22:33:52.292Z,8.80
2022-09-28T22:36:20.302Z,8.70
2022-09-28T22:38:48.582Z,8.70
2022-09-28T22:41:17.697Z,8.70
2022-09-28T22:43:45.735Z,8.60
2022-09-28T22:46:14.367Z,8.60
2022-09-28T22:48:43.330Z,8.60
2022-09-28T22:51:12.679Z,8.60
2022-09-28T22:53:40.708Z,8.50
2022-09-28T22:56:08.957Z,8.50
2022-09-28T22:58:37.502Z,8.40
2022-09-28T23:01:09.219Z,8.40
2022-09-28T23:03:40.075Z,8.30
2022-09-28T23:06:08.294Z,8.30
2022-09-28T23:08:37.692Z,8.30
2022-09-28T23:11:05.910Z,8.30
2022-09-28T23:13:33.974Z,8.30
2022-09-28T23:16:02.976Z,8.30
2022-09-28T23:18:32.612Z,8.30
2022-09-28T23:21:01.288Z,8.30
2022-09-28T23:23:29.326Z,8.30
2022-09-28T23:25:58.700Z,8.30
2022-09-28T23:28:27.572Z,8.30
2022-09-28T23:30:55.674Z,8.30
2022-09-28T23:33:23.772Z,8.30
2022-09-28T23:35:51.769Z,8.20
2022-09-28T23:38:19.789Z,8.20
2022-09-28T23:40:48.094Z,8.20
2022-09-28T23:43:17.504Z,8.10
2022-09-28T23:45:45.593Z,8.10
2022-09-28T23:48:15.016Z,8.10
2022-09-28T23:50:43.174Z,8.10
2022-09-28T23:53:11.904Z,8.00
2022-09-28T23:55:39.923Z,8.00
2022-09-28T23:58:07.949Z,7.90
